createdAt,value
2023-04-12T00:01:33.672Z,10.24
2023-04-12T00:04:05.074Z,10.38
2023-04-12T00:06:32.877Z,10.26
2023-04-12T00:09:02.195Z,10.43
2023-04-12T00:11:31.870Z,10.58
2023-04-12T00:13:58.926Z,10.49
2023-04-12T00:16:26.721Z,10.07
2023-04-12T00:18:57.799Z,10.43
2023-04-12T00:21:29.083Z,10.68
2023-04-12T00:23:57.452Z,10.77
2023-04-12T00:26:27.659Z,10.45
2023-04-12T00:28:55.063Z,10.49
2023-04-12T00:31:22.416Z,10.13
2023-04-12T00:33:49.774Z,10.16
2023-04-12T00:36:17.952Z,10.51
2023-04-12T00:38:51.452Z,10.57
2023-04-12T00:41:18.911Z,10.60
2023-04-12T00:43:46.052Z,10.71
2023-04-12T00:46:13.504Z,9.98
2023-04-12T00:48:41.099Z,9.67
2023-04-12T00:51:08.453Z,9.65
2023-04-12T00:53:36.433Z,9.34
2023-04-12T00:56:04.564Z,10.04
2023-04-12T00:58:32.306Z,9.53
2023-04-12T01:00:59.602Z,10.14
2023-04-12T01:03:31.230Z,10.20
2023-04-12T01:06:33.272Z,10.07
2023-04-12T01:09:11.639Z,10.00
2023-04-12T01:11:44.680Z,10.12
2023-04-12T01:14:14.631Z,10.13
2023-04-12T01:16:51.709Z,10.25
2023-04-12T01:19:29.239Z,10.27
2023-04-12T01:22:30.511Z,10.34
2023-04-12T01:25:05.144Z,10.02
2023-04-12T01:27:42.607Z,10.17
2023-04-12T01:30:14.252Z,10.11
2023-04-12T01:32:44.487Z,10.04
2023-04-12T01:35:13.270Z,10.01
2023-04-12T01:37:41.732Z,9.98
2023-04-12T01:40:15.235Z,9.87
2023-04-12T01:42:42.409Z,10.07
2023-04-12T01:45:09.941Z,8.84
2023-04-12T01:47:39.465Z,7.69
2023-04-12T01:50:28.494Z,8.06
2023-04-12T01:53:27.601Z,8.19
2023-04-12T01:56:00.033Z,8.69
2023-04-12T01:58:29.781Z,8.18
2023-04-12T02:00:59.273Z,8.47
2023-04-12T02:03:27.372Z,8.39
2023-04-12T02:05:54.635Z,8.51
2023-04-12T02:08:22.346Z,8.58
2023-04-12T02:10:49.512Z,8.57
2023-04-12T02:13:18.473Z,8.65
2023-04-12T02:15:46.277Z,8.66
2023-04-12T02:18:14.307Z,8.50
2023-04-12T02:20:41.507Z,8.71
2023-04-12T02:23:09.892Z,7.93
2023-04-12T02:25:36.996Z,8.31
2023-04-12T02:28:04.131Z,8.05
2023-04-12T02:30:31.360Z,7.91
2023-04-12T02:32:59.007Z,7.94
2023-04-12T02:35:26.705Z,8.05
2023-04-12T02:37:55.141Z,7.89
2023-04-12T02:40:22.473Z,7.72
2023-04-12T02:42:49.636Z,7.61
2023-04-12T02:45:16.932Z,7.94
2023-04-12T02:47:44.078Z,8.00
2023-04-12T02:50:12.234Z,7.57
2023-04-12T02:52:39.399Z,7.76
2023-04-12T02:55:07.079Z,7.88
2023-04-12T02:57:34.101Z,8.33
2023-04-12T03:00:01.930Z,7.93
2023-04-12T03:02:29.394Z,7.94
2023-04-12T03:04:57.335Z,8.38
2023-04-12T03:07:24.573Z,8.58
2023-04-12T03:09:52.120Z,8.59
2023-04-12T03:12:19.440Z,8.59
2023-04-12T03:14:46.701Z,8.52
2023-04-12T03:17:13.849Z,7.81
2023-04-12T03:19:41.086Z,8.16
2023-04-12T03:22:08.203Z,8.41
2023-04-12T03:24:35.430Z,8.11
2023-04-12T03:27:03.953Z,8.04
2023-04-12T03:29:31.653Z,7.24
2023-04-12T03:31:59.909Z,7.73
2023-04-12T03:34:28.147Z,7.62
2023-04-12T03:36:56.075Z,7.68
2023-04-12T03:39:23.289Z,7.66
2023-04-12T03:41:51.082Z,7.69
2023-04-12T03:44:18.317Z,7.58
2023-04-12T03:46:45.957Z,7.63
2023-04-12T03:49:13.286Z,7.61
2023-04-12T03:51:44.035Z,7.45
2023-04-12T03:54:14.748Z,7.45
2023-04-12T03:56:42.795Z,7.47
2023-04-12T03:59:10.879Z,7.63
2023-04-12T04:01:39.101Z,7.53
2023-04-12T04:04:07.221Z,7.69
2023-04-12T04:06:34.941Z,7.72
2023-04-12T04:09:02.183Z,7.74
2023-04-12T04:11:29.397Z,7.67
2023-04-12T04:13:56.722Z,7.75
2023-04-12T04:16:24.062Z,7.83
2023-04-12T04:18:51.378Z,7.66
2023-04-12T04:21:19.869Z,7.81
2023-04-12T04:23:48.350Z,7.64
2023-04-12T04:26:17.188Z,7.69
2023-04-12T04:28:48.054Z,7.08
2023-04-12T04:31:17.960Z,7.26
2023-04-12T04:33:45.132Z,7.90
2023-04-12T04:36:13.860Z,8.38
2023-04-12T04:38:42.326Z,9.09
2023-04-12T04:41:09.564Z,9.49
2023-04-12T04:43:40.213Z,9.62
2023-04-12T04:46:07.517Z,10.29
2023-04-12T04:48:34.858Z,10.79
2023-04-12T04:51:02.620Z,11.12
2023-04-12T04:53:29.703Z,11.72
2023-04-12T04:56:01.355Z,12.17
2023-04-12T04:58:28.585Z,13.09
2023-04-12T05:00:59.949Z,13.94
2023-04-12T05:03:31.049Z,14.33
2023-04-12T05:05:58.187Z,15.14
2023-04-12T05:08:25.429Z,15.47
2023-04-12T05:10:53.604Z,15.84
2023-04-12T05:13:22.555Z,15.21
2023-04-12T05:15:50.317Z,15.26
2023-04-12T05:18:18.352Z,14.91
2023-04-12T05:20:46.131Z,15.71
2023-04-12T05:23:13.157Z,16.25
2023-04-12T05:25:48.515Z,16.83
2023-04-12T05:28:20.267Z,17.21
2023-04-12T05:30:47.333Z,17.80
2023-04-12T05:33:14.474Z,18.26
2023-04-12T05:35:41.481Z,17.97
2023-04-12T05:38:08.577Z,18.47
2023-04-12T05:40:36.724Z,18.86
2023-04-12T05:43:03.977Z,19.53
2023-04-12T05:45:33.173Z,19.89
2023-04-12T05:48:00.363Z,20.61
2023-04-12T05:50:27.398Z,21.19
2023-04-12T05:52:55.817Z,21.53
2023-04-12T05:55:22.994Z,21.77
2023-04-12T05:57:50.132Z,22.26
2023-04-12T06:00:17.783Z,22.52
2023-04-12T06:02:46.328Z,22.32
2023-04-12T06:05:13.946Z,22.69
2023-04-12T06:07:44.875Z,22.82
2023-04-12T06:10:12.082Z,23.00
2023-04-12T06:12:39.430Z,23.11
2023-04-12T06:15:07.947Z,23.48
2023-04-12T06:17:45.238Z,23.39
2023-04-12T06:20:14.673Z,23.76
2023-04-12T06:22:45.377Z,23.54
2023-04-12T06:25:12.521Z,23.22
2023-04-12T06:27:39.567Z,22.74
2023-04-12T06:30:07.259Z,22.35
2023-04-12T06:32:34.475Z,22.29
2023-04-12T06:35:01.572Z,21.80
2023-04-12T06:37:28.681Z,20.14
2023-04-12T06:39:55.858Z,20.78
2023-04-12T06:42:23.007Z,20.15
2023-04-12T06:44:50.146Z,18.74
2023-04-12T06:47:20.366Z,19.69
2023-04-12T06:49:47.672Z,16.90
2023-04-12T06:52:14.946Z,18.19
2023-04-12T06:54:42.748Z,18.74
2023-04-12T06:57:12.603Z,18.76
2023-04-12T06:59:42.084Z,17.69
2023-04-12T07:02:09.292Z,16.21
2023-04-12T07:04:36.727Z,17.67
2023-04-12T07:07:03.948Z,16.73
2023-04-12T07:09:34.126Z,17.88
2023-04-12T07:12:02.648Z,17.46
2023-04-12T07:14:29.879Z,18.55
2023-04-12T07:16:59.402Z,19.09
2023-04-12T07:19:26.599Z,19.03
2023-04-12T07:21:53.786Z,19.40
2023-04-12T07:24:22.318Z,19.93
2023-04-12T07:26:49.909Z,19.36
2023-04-12T07:29:17.808Z,19.67
2023-04-12T07:31:44.958Z,18.50
2023-04-12T07:34:13.573Z,18.69
2023-04-12T07:36:40.937Z,18.72
2023-04-12T07:39:12.248Z,18.23
2023-04-12T07:41:39.782Z,19.19
2023-04-12T07:44:07.054Z,19.42
2023-04-12T07:46:36.611Z,18.07
2023-04-12T07:49:04.503Z,15.53
2023-04-12T07:51:31.698Z,16.87
2023-04-12T07:53:59.059Z,16.54
2023-04-12T07:56:26.551Z,18.00
2023-04-12T07:58:54.150Z,18.65
2023-04-12T08:01:21.613Z,19.25
2023-04-12T08:03:49.104Z,18.67
2023-04-12T08:06:17.837Z,18.38
2023-04-12T08:08:45.127Z,18.30
2023-04-12T08:11:14.232Z,18.38
2023-04-12T08:13:41.335Z,17.98
2023-04-12T08:16:09.454Z,17.36
2023-04-12T08:18:38.662Z,18.18
2023-04-12T08:21:06.019Z,18.90
2023-04-12T08:23:33.481Z,19.44
2023-04-12T08:26:05.133Z,18.83
2023-04-12T08:28:32.843Z,19.65
2023-04-12T08:31:02.025Z,18.50
2023-04-12T08:33:29.362Z,19.96
2023-04-12T08:35:57.074Z,20.72
2023-04-12T08:38:33.906Z,21.47
2023-04-12T08:41:14.804Z,21.88
2023-04-12T08:43:45.747Z,22.54
2023-04-12T08:46:17.969Z,21.41
2023-04-12T08:48:50.932Z,19.52
2023-04-12T08:51:19.798Z,21.35
2023-04-12T08:53:47.212Z,21.35
2023-04-12T08:56:17.884Z,19.86
2023-04-12T08:58:51.471Z,20.88
2023-04-12T09:01:20.948Z,21.29
2023-04-12T09:03:48.171Z,21.48
2023-04-12T09:06:15.988Z,20.60
2023-04-12T09:08:55.323Z,21.37
2023-04-12T09:11:27.304Z,21.20
2023-04-12T09:13:56.530Z,21.94
2023-04-12T09:16:41.526Z,22.11
2023-04-12T09:19:09.748Z,22.57
2023-04-12T09:21:37.483Z,21.87
2023-04-12T09:24:14.796Z,21.74
2023-04-12T09:26:42.548Z,22.06
2023-04-12T09:29:25.541Z,21.20
2023-04-12T09:32:08.095Z,21.53
2023-04-12T09:34:38.702Z,20.22
2023-04-12T09:37:24.623Z,20.44
2023-04-12T09:40:11.113Z,20.64
2023-04-12T09:42:53.711Z,20.87
2023-04-12T09:45:26.164Z,21.19
2023-04-12T09:47:54.841Z,20.61
2023-04-12T09:50:30.029Z,20.36
2023-04-12T09:52:59.500Z,21.10
2023-04-12T09:55:30.058Z,20.98
2023-04-12T09:57:58.774Z,20.93
2023-04-12T10:00:27.659Z,21.47
2023-04-12T10:02:57.087Z,21.39
2023-04-12T10:05:26.921Z,20.78
2023-04-12T10:07:58.684Z,21.45
2023-04-12T10:10:26.282Z,22.28
2023-04-12T10:12:53.580Z,22.54
2023-04-12T10:15:23.926Z,22.19
2023-04-12T10:17:57.887Z,23.17
2023-04-12T10:20:28.517Z,21.49
2023-04-12T10:22:58.151Z,20.93
2023-04-12T10:25:31.840Z,22.20
2023-04-12T10:28:14.730Z,22.44
2023-04-12T10:30:42.229Z,21.82
2023-04-12T10:33:14.351Z,21.45
2023-04-12T10:36:01.029Z,20.33
2023-04-12T10:38:33.645Z,20.06
2023-04-12T10:41:21.171Z,21.07
2023-04-12T10:43:52.606Z,20.69
2023-04-12T10:46:41.629Z,21.50
2023-04-12T10:49:11.838Z,21.70
2023-04-12T10:51:39.339Z,22.15
2023-04-12T10:54:11.944Z,22.28
2023-04-12T10:56:41.081Z,21.38
2023-04-12T10:59:09.843Z,22.09
2023-04-12T11:01:39.471Z,21.91
2023-04-12T11:04:24.122Z,21.86
2023-04-12T11:06:59.164Z,22.67
2023-04-12T11:09:39.702Z,22.39
2023-04-12T11:12:09.580Z,22.68
2023-04-12T11:14:48.402Z,23.23
2023-04-12T11:17:16.144Z,23.69
2023-04-12T11:19:46.585Z,24.21
2023-04-12T11:22:16.634Z,25.13
2023-04-12T11:24:45.624Z,25.79
2023-04-12T11:27:13.252Z,26.08
2023-04-12T11:29:40.591Z,26.80
2023-04-12T11:32:15.077Z,27.65
2023-04-12T11:34:48.267Z,25.71
2023-04-12T11:37:16.054Z,26.64
2023-04-12T11:39:44.853Z,27.02
2023-04-12T11:42:21.210Z,26.94
2023-04-12T11:44:57.302Z,26.20
2023-04-12T11:47:28.063Z,26.73
2023-04-12T11:49:59.505Z,27.08
2023-04-12T11:52:32.190Z,27.05
2023-04-12T11:55:07.827Z,26.77
2023-04-12T11:57:37.681Z,27.54
2023-04-12T12:00:08.294Z,23.42
2023-04-12T12:02:43.546Z,25.99
2023-04-12T12:05:13.853Z,26.75
2023-04-12T12:07:43.397Z,27.16
2023-04-12T12:10:10.609Z,26.46
2023-04-12T12:12:37.862Z,26.34
2023-04-12T12:15:05.408Z,26.08
2023-04-12T12:17:38.207Z,26.38
2023-04-12T12:20:08.105Z,26.32
2023-04-12T12:22:35.230Z,26.88
2023-04-12T12:25:04.404Z,27.65
2023-04-12T12:27:35.573Z,27.95
2023-04-12T12:30:04.748Z,28.42
2023-04-12T12:32:37.504Z,27.46
2023-04-12T12:35:10.327Z,27.79
2023-04-12T12:37:37.559Z,26.94
2023-04-12T12:40:18.053Z,27.16
2023-04-12T12:42:56.642Z,27.14
2023-04-12T12:45:26.082Z,26.95
2023-04-12T12:48:01.092Z,26.67
2023-04-12T12:50:33.150Z,26.38
2023-04-12T12:53:01.258Z,25.90
2023-04-12T12:55:33.547Z,25.97
2023-04-12T13:00:31.952Z,21.65
2023-04-12T13:03:02.181Z,21.90
2023-04-12T13:05:30.050Z,22.35
2023-04-12T13:07:57.281Z,22.26
2023-04-12T13:10:24.650Z,22.66
2023-04-12T13:12:55.150Z,22.70
2023-04-12T13:15:24.167Z,22.59
2023-04-12T13:17:55.649Z,22.51
2023-04-12T13:20:41.028Z,22.10
2023-04-12T13:23:11.031Z,20.84
2023-04-12T13:25:42.061Z,21.21
2023-04-12T13:28:13.082Z,21.86
2023-04-12T13:30:40.252Z,22.28
2023-04-12T13:33:09.967Z,22.79
2023-04-12T13:35:37.671Z,23.13
2023-04-12T13:38:04.792Z,23.55
2023-04-12T13:40:32.147Z,23.64
2023-04-12T13:43:02.846Z,23.60
2023-04-12T13:45:31.164Z,23.60
2023-04-12T13:48:00.130Z,23.64
2023-04-12T13:50:27.609Z,23.96
2023-04-12T13:52:56.712Z,24.33
2023-04-12T13:55:23.861Z,23.96
2023-04-12T13:57:51.042Z,24.28
2023-04-12T14:00:27.894Z,24.57
2023-04-12T14:02:55.207Z,24.47
2023-04-12T14:05:23.091Z,24.81
2023-04-12T14:07:51.121Z,25.32
2023-04-12T14:10:18.517Z,25.23
2023-04-12T14:12:45.670Z,25.31
2023-04-12T14:15:12.841Z,25.24
2023-04-12T14:17:42.050Z,23.85
2023-04-12T14:20:16.602Z,22.29
2023-04-12T14:22:45.049Z,22.90
2023-04-12T14:25:12.163Z,23.67
2023-04-12T14:27:39.239Z,23.43
2023-04-12T14:30:07.711Z,23.85
2023-04-12T14:32:34.804Z,23.50
2023-04-12T14:35:04.925Z,22.35
2023-04-12T14:37:33.315Z,21.68
2023-04-12T14:40:00.384Z,20.72
2023-04-12T14:42:27.470Z,20.19
2023-04-12T14:44:54.456Z,19.86
2023-04-12T14:47:21.842Z,20.50
2023-04-12T14:49:48.905Z,20.54
2023-04-12T14:52:16.809Z,21.29
2023-04-12T14:54:43.839Z,21.19
2023-04-12T14:57:11.477Z,20.99
2023-04-12T14:59:40.523Z,21.01
2023-04-12T15:02:07.747Z,19.45
2023-04-12T15:04:37.046Z,20.49
2023-04-12T15:07:04.139Z,20.92
2023-04-12T15:09:31.398Z,21.36
2023-04-12T15:12:03.429Z,21.58
2023-04-12T15:14:30.493Z,20.47
2023-04-12T15:16:59.542Z,19.88
2023-04-12T15:19:26.548Z,20.47
2023-04-12T15:21:59.199Z,20.79
2023-04-12T15:24:28.345Z,20.74
2023-04-12T15:26:55.439Z,20.62
2023-04-12T15:29:22.976Z,20.53
2023-04-12T15:31:50.473Z,21.01
2023-04-12T15:34:17.945Z,21.35
2023-04-12T15:36:46.355Z,21.61
2023-04-12T15:39:15.230Z,21.76
2023-04-12T15:41:43.416Z,21.76
2023-04-12T15:44:14.382Z,22.00
2023-04-12T15:46:42.047Z,21.74
2023-04-12T15:49:09.964Z,21.93
2023-04-12T15:51:36.943Z,22.08
2023-04-12T15:54:05.627Z,22.15
2023-04-12T15:56:32.798Z,22.25
2023-04-12T15:59:01.452Z,22.50
2023-04-12T16:01:28.825Z,22.06
2023-04-12T16:03:56.078Z,21.86
2023-04-12T16:06:25.525Z,22.24
2023-04-12T16:08:54.872Z,21.97
2023-04-12T16:11:24.113Z,22.11
2023-04-12T16:13:51.867Z,22.20
2023-04-12T16:16:21.556Z,22.16
2023-04-12T16:18:49.159Z,22.29
2023-04-12T16:21:20.376Z,21.73
2023-04-12T16:23:49.141Z,22.11
2023-04-12T16:26:24.971Z,22.13
2023-04-12T16:28:53.530Z,22.14
2023-04-12T16:31:21.453Z,21.99
2023-04-12T16:33:49.909Z,22.14
2023-04-12T16:36:17.435Z,21.97
2023-04-12T16:38:45.858Z,21.81
2023-04-12T16:41:13.299Z,21.98
2023-04-12T16:43:41.495Z,22.01
2023-04-12T16:46:10.933Z,21.97
2023-04-12T16:48:43.841Z,21.86
2023-04-12T16:51:10.853Z,21.96
2023-04-12T16:53:37.994Z,21.73
2023-04-12T16:56:07.473Z,21.81
2023-04-12T16:58:34.536Z,21.65
2023-04-12T17:01:02.181Z,21.37
2023-04-12T17:03:29.330Z,20.92
2023-04-12T17:05:56.370Z,20.89
2023-04-12T17:08:23.501Z,20.74
2023-04-12T17:10:53.142Z,20.81
2023-04-12T17:13:20.556Z,20.54
2023-04-12T17:15:50.552Z,20.15
2023-04-12T17:18:17.672Z,20.28
2023-04-12T17:20:45.096Z,19.81
2023-04-12T17:23:12.654Z,19.52
2023-04-12T17:25:40.172Z,19.73
2023-04-12T17:28:08.688Z,19.56
2023-04-12T17:30:35.764Z,19.46
2023-04-12T17:33:03.269Z,19.51
2023-04-12T17:35:30.362Z,19.39
2023-04-12T17:37:57.514Z,19.28
2023-04-12T17:40:24.545Z,18.84
2023-04-12T17:42:53.637Z,18.87
2023-04-12T17:45:22.094Z,18.98
2023-04-12T17:47:49.441Z,18.86
2023-04-12T17:50:16.744Z,18.81
2023-04-12T17:52:44.997Z,18.75
2023-04-12T17:55:13.107Z,18.65
2023-04-12T17:57:40.403Z,18.38
2023-04-12T18:00:12.112Z,18.23
2023-04-12T18:02:39.773Z,18.00
2023-04-12T18:05:07.853Z,18.05
2023-04-12T18:07:35.022Z,17.83
2023-04-12T18:10:03.569Z,18.19
2023-04-12T18:12:30.634Z,17.90
2023-04-12T18:14:57.688Z,17.73
2023-04-12T18:17:26.539Z,17.28
2023-04-12T18:19:54.675Z,17.43
2023-04-12T18:22:21.857Z,17.67
2023-04-12T18:24:48.911Z,17.67
2023-04-12T18:27:15.928Z,17.87
2023-04-12T18:29:43.013Z,17.91
2023-04-12T18:32:09.984Z,17.74
2023-04-12T18:34:36.934Z,17.67
2023-04-12T18:37:06.183Z,17.56
2023-04-12T18:39:35.866Z,17.51
2023-04-12T18:42:03.043Z,17.53
2023-04-12T18:44:30.536Z,17.46
2023-04-12T18:46:57.492Z,17.27
2023-04-12T18:49:24.606Z,17.37
2023-04-12T18:51:53.504Z,17.19
2023-04-12T18:54:21.407Z,16.11
2023-04-12T18:56:49.853Z,16.66
2023-04-12T18:59:18.001Z,16.55
2023-04-12T19:01:45.935Z,16.44
2023-04-12T19:04:13.268Z,16.70
2023-04-12T19:06:42.466Z,16.83
2023-04-12T19:09:09.541Z,16.71
2023-04-12T19:11:37.228Z,16.57
2023-04-12T19:14:04.720Z,16.91
2023-04-12T19:16:32.358Z,17.05
2023-04-12T19:19:00.499Z,16.58
2023-04-12T19:21:31.801Z,16.56
2023-04-12T19:23:59.276Z,16.70
2023-04-12T19:26:28.778Z,16.73
2023-04-12T19:28:58.469Z,16.37
2023-04-12T19:31:25.994Z,16.64
2023-04-12T19:33:54.929Z,16.70
2023-04-12T19:36:24.883Z,16.73
2023-04-12T19:38:52.379Z,15.99
2023-04-12T19:41:20.753Z,16.37
2023-04-12T19:43:48.026Z,15.95
2023-04-12T19:46:15.286Z,15.91
2023-04-12T19:48:42.942Z,16.10
2023-04-12T19:51:10.039Z,15.61
2023-04-12T19:53:37.209Z,15.77
2023-04-12T19:56:04.526Z,15.96
2023-04-12T19:58:32.356Z,14.99
2023-04-12T20:01:02.352Z,15.36
2023-04-12T20:03:30.397Z,15.33
2023-04-12T20:05:59.305Z,15.53
2023-04-12T20:08:28.724Z,15.72
2023-04-12T20:10:56.534Z,15.36
2023-04-12T20:13:23.571Z,15.20
2023-04-12T20:15:51.381Z,15.42
2023-04-12T20:18:18.445Z,15.24
2023-04-12T20:20:45.904Z,14.85
2023-04-12T20:23:13.969Z,14.96
2023-04-12T20:25:42.059Z,15.16
2023-04-12T20:28:09.694Z,15.07
2023-04-12T20:30:37.198Z,15.24
2023-04-12T20:33:04.813Z,15.25
2023-04-12T20:35:32.333Z,15.20
2023-04-12T20:38:00.285Z,15.27
2023-04-12T20:40:30.057Z,14.31
2023-04-12T20:42:57.158Z,14.38
2023-04-12T20:45:24.424Z,14.29
2023-04-12T20:47:51.595Z,14.01
2023-04-12T20:50:22.660Z,14.71
2023-04-12T20:52:52.309Z,14.95
2023-04-12T20:55:19.811Z,14.64
2023-04-12T20:57:46.906Z,14.48
2023-04-12T21:00:21.168Z,15.10
2023-04-12T21:02:49.071Z,15.04
2023-04-12T21:05:17.262Z,15.34
2023-04-12T21:07:47.029Z,15.50
2023-04-12T21:10:15.263Z,15.47
2023-04-12T21:12:43.029Z,15.52
2023-04-12T21:15:12.226Z,15.70
2023-04-12T21:17:39.435Z,15.87
2023-04-12T21:20:13.672Z,15.83
2023-04-12T21:22:44.424Z,15.11
2023-04-12T21:25:14.038Z,15.18
2023-04-12T21:27:45.930Z,15.58
2023-04-12T21:30:13.854Z,15.73
2023-04-12T21:32:41.464Z,15.73
2023-04-12T21:35:10.087Z,15.38
2023-04-12T21:37:39.420Z,15.57
2023-04-12T21:40:09.626Z,15.76
2023-04-12T21:42:37.720Z,15.51
2023-04-12T21:45:05.740Z,15.53
2023-04-12T21:47:33.155Z,15.62
2023-04-12T21:50:00.742Z,15.82
2023-04-12T21:52:28.023Z,15.55
2023-04-12T21:54:55.933Z,15.70
2023-04-12T21:57:23.014Z,15.66
2023-04-12T21:59:49.954Z,15.26
2023-04-12T22:02:16.980Z,15.30
2023-04-12T22:04:44.370Z,15.55
2023-04-12T22:07:13.542Z,15.70
2023-04-12T22:09:41.640Z,15.15
2023-04-12T22:12:10.167Z,15.13
2023-04-12T22:14:37.361Z,15.38
2023-04-12T22:17:06.258Z,15.57
2023-04-12T22:19:33.345Z,15.34
2023-04-12T22:22:01.763Z,13.84
2023-04-12T22:24:29.656Z,14.15
2023-04-12T22:26:57.694Z,14.03
2023-04-12T22:29:25.617Z,13.88
2023-04-12T22:31:52.996Z,13.66
2023-04-12T22:34:20.089Z,13.52
2023-04-12T22:36:51.837Z,12.93
2023-04-12T22:39:20.528Z,13.19
2023-04-12T22:41:53.347Z,12.86
2023-04-12T22:44:23.541Z,13.07
2023-04-12T22:46:54.603Z,12.84
2023-04-12T22:49:28.452Z,12.71
2023-04-12T22:51:56.126Z,13.07
2023-04-12T22:54:26.720Z,12.70
2023-04-12T22:56:53.772Z,12.35
2023-04-12T22:59:23.266Z,12.47
2023-04-12T23:01:50.719Z,12.77
2023-04-12T23:04:17.820Z,12.94
2023-04-12T23:06:45.589Z,12.71
2023-04-12T23:09:13.115Z,12.67
2023-04-12T23:11:41.478Z,13.21
2023-04-12T23:14:09.941Z,13.08
2023-04-12T23:16:42.621Z,12.92
2023-04-12T23:19:09.799Z,13.37
2023-04-12T23:21:37.380Z,13.51
2023-04-12T23:24:05.559Z,13.28
2023-04-12T23:26:34.588Z,13.97
2023-04-12T23:29:03.919Z,13.55
2023-04-12T23:31:33.659Z,13.69
2023-04-12T23:34:03.937Z,13.61
2023-04-12T23:36:31.000Z,13.79
2023-04-12T23:39:00.565Z,13.49
2023-04-12T23:41:32.242Z,13.44
2023-04-12T23:44:00.547Z,14.20
2023-04-12T23:46:28.163Z,13.74
2023-04-12T23:48:55.402Z,14.15
2023-04-12T23:51:22.961Z,13.89
2023-04-12T23:53:50.522Z,14.27
2023-04-12T23:56:17.662Z,14.53
2023-04-12T23:58:44.790Z,14.65
